Home   Weather   USA   San Antonio   Past weeks
Flag for USA

Past Weather in San Antonio, Texas, USA — Yesterday and Last 2 Weeks

Currently: 93 °F. Partly sunny. (Weather station: San Antonio International Airport, USA). See more current weather

Past Weather in San Antonio — Graph

°F

San Antonio Temperature Yesterday

Maximum temperature yesterday: 94 °F (at 4:51 pm)
Minimum temperature yesterday: 71 °F (at 12:13 am)
Average temperature yesterday: 82 °F

High & Low Weather Summary for the Past Weeks

 TemperatureHumidityPressure
High101 °F (May 25, 3:51 pm)97% (May 18, 6:51 am)30.11 "Hg (May 18, 6:51 am)
Low63 °F (May 17, 6:51 am)32% (May 18, 4:51 pm)29.56 "Hg (May 16, 3:51 pm)
Average83 °F70%29.79 "Hg
* Reported May 15 4:51 pm — May 30 4:54 pm, San Antonio. Weather by CustomWeather, © 2024

Note: Actual official high and low records may vary slightly from our data, if they occured in-between our weather recording intervals... More about our weather records

San Antonio Weather History for the Previous 24 Hours

Scroll right to see more
 ConditionsComfort  
Time TempWeatherWind HumidityBarometerVisibility
4:54 pm
Thu, May 30
97 °FPartly sunny.13 mph44%29.80 "Hg10 mi
3:54 pm93 °FPartly sunny.13 mph47%29.83 "Hg10 mi
2:58 pm95 °FPartly sunny.10 mph47%29.86 "Hg10 mi
2:01 pm92 °FMore clouds than sun.16 mph52%29.88 "Hg10 mi
12:51 pm90 °FPartly sunny.16 mph56%29.86 "Hg10 mi
12:33 pm91 °FMostly cloudy.18 mph54%29.93 "Hg10 mi
11:59 am88 °FCloudy.16 mph59%29.94 "Hg10 mi
11:21 am87 °FCloudy.16 mph63%29.95 "Hg10 mi
11:11 am87 °FMostly cloudy.14 mph63%29.95 "Hg10 mi
10:51 am83 °FPartly sunny.10 mph74%29.90 "Hg10 mi
9:51 am85 °FCloudy.14 mph70%29.92 "Hg10 mi
9:32 am82 °FCloudy.13 mph77%29.98 "Hg10 mi
8:52 am81 °FPartly sunny.14 mph82%29.92 "Hg10 mi
8:01 am80 °FMostly cloudy.12 mph85%29.97 "Hg10 mi
7:27 am79 °FMostly cloudy.12 mph88%29.96 "Hg10 mi
7:12 am79 °FMostly cloudy.8 mph88%29.95 "Hg9 mi
6:59 am78 °FCloudy.10 mph90%29.95 "Hg8 mi
6:28 am78 °FMostly cloudy.10 mph90%29.95 "Hg9 mi
5:51 am78 °FPassing clouds.8 mph90%29.89 "Hg10 mi
4:51 am78 °FMostly cloudy.7 mph90%29.89 "Hg10 mi
3:51 am79 °FMostly cloudy.10 mph84%29.90 "Hg10 mi
3:08 am79 °FOvercast.8 mph84%29.97 "Hg10 mi
2:30 am79 °FPassing clouds.8 mph82%29.96 "Hg10 mi
2:23 am79 °FPassing clouds.7 mph82%29.96 "Hg10 mi
2:15 am79 °FOvercast.9 mph82%29.96 "Hg10 mi
12:51 am81 °FClear.13 mph72%29.93 "Hg10 mi
11:51 pm
Wed, May 29
82 °FPassing clouds.12 mph67%29.92 "Hg10 mi
10:51 pm83 °FPassing clouds.14 mph68%29.91 "Hg10 mi
9:51 pm85 °FPassing clouds.9 mph59%29.90 "Hg10 mi
8:51 pm86 °FPassing clouds.8 mph55%29.88 "Hg10 mi
7:51 pm88 °FPassing clouds.14 mph50%29.87 "Hg10 mi
6:51 pm92 °FScattered clouds.14 mph46%29.87 "Hg10 mi
Weather by CustomWeather, © 2024

See weather overview